createdAt,value
2023-01-21T00:00:32.199Z,18.60
2023-01-21T00:03:22.450Z,20.85
2023-01-21T00:05:52.923Z,17.98
2023-01-21T00:08:22.385Z,18.50
2023-01-21T00:10:52.093Z,16.88
2023-01-21T00:13:21.374Z,17.58
2023-01-21T00:15:51.256Z,17.02
2023-01-21T00:18:22.026Z,17.92
2023-01-21T00:20:51.786Z,17.75
2023-01-21T00:23:21.045Z,19.10
2023-01-21T00:25:50.678Z,17.08
2023-01-21T00:28:20.115Z,18.30
2023-01-21T00:30:52.302Z,17.77
2023-01-21T00:33:23.443Z,16.52
2023-01-21T00:38:28.096Z,18.45
2023-01-21T00:41:02.100Z,17.75
2023-01-21T00:43:31.774Z,17.08
2023-01-21T00:46:01.673Z,14.93
2023-01-21T00:48:32.803Z,18.98
2023-01-21T00:51:03.515Z,16.80
2023-01-21T00:53:34.812Z,18.65
2023-01-21T00:56:06.086Z,17.25
2023-01-21T01:01:07.082Z,15.35
2023-01-21T01:03:40.190Z,16.77
2023-01-21T01:06:12.545Z,17.48
2023-01-21T01:08:41.935Z,17.10
2023-01-21T01:11:12.145Z,18.00
2023-01-21T01:13:41.590Z,17.73
2023-01-21T01:16:14.829Z,17.15
2023-01-21T01:18:45.970Z,17.75
2023-01-21T01:21:18.263Z,17.13
2023-01-21T01:23:48.781Z,16.63
2023-01-21T01:26:20.787Z,19.73
2023-01-21T01:28:50.569Z,18.63
2023-01-21T01:31:21.736Z,17.23
2023-01-21T01:33:52.570Z,18.10
2023-01-21T01:38:54.692Z,18.65
2023-01-21T01:41:27.711Z,17.58
2023-01-21T01:44:00.134Z,18.13
2023-01-21T01:46:32.137Z,17.42
2023-01-21T01:49:09.589Z,18.55
2023-01-21T01:51:46.253Z,17.45
2023-01-21T01:54:19.687Z,17.27
2023-01-21T01:56:53.677Z,17.42
2023-01-21T01:59:23.597Z,17.17
2023-01-21T02:01:53.518Z,15.88
2023-01-21T02:04:27.892Z,14.50
2023-01-21T02:06:58.633Z,14.13
2023-01-21T02:09:30.189Z,12.05
2023-01-21T02:12:01.098Z,11.27
2023-01-21T02:14:31.986Z,7.90
2023-01-21T02:17:23.645Z,6.05
2023-01-21T02:20:22.448Z,5.95
2023-01-21T02:22:59.650Z,4.93
2023-01-21T02:25:53.640Z,4.70
2023-01-21T02:29:14.727Z,3.65
2023-01-21T02:32:02.461Z,2.92
2023-01-21T02:34:45.417Z,3.70
2023-01-21T02:37:19.085Z,2.63
2023-01-21T02:40:05.113Z,2.30
2023-01-21T02:42:43.779Z,2.40
2023-01-21T02:45:27.124Z,2.50
2023-01-21T02:48:06.415Z,3.58
2023-01-21T02:50:41.666Z,3.13
2023-01-21T02:53:26.380Z,3.05
2023-01-21T02:55:56.475Z,2.65
2023-01-21T02:58:29.460Z,3.30
2023-01-21T03:01:09.968Z,3.95
2023-01-21T03:04:17.660Z,4.15
2023-01-21T03:06:57.726Z,3.45
2023-01-21T03:09:29.461Z,4.22
2023-01-21T03:12:11.193Z,4.35
2023-01-21T03:15:05.803Z,4.78
2023-01-21T03:17:41.867Z,5.13
2023-01-21T03:20:15.703Z,4.07
2023-01-21T03:22:48.651Z,3.92
2023-01-21T03:25:19.102Z,4.28
2023-01-21T03:27:51.637Z,3.92
2023-01-21T03:30:25.584Z,3.17
2023-01-21T03:32:57.414Z,3.53
2023-01-21T03:35:30.741Z,2.70
2023-01-21T03:38:06.802Z,2.28
2023-01-21T03:40:40.277Z,2.70
2023-01-21T03:43:10.557Z,1.92
2023-01-21T03:45:44.847Z,2.20
2023-01-21T03:48:20.868Z,2.00
2023-01-21T03:50:57.038Z,1.40
2023-01-21T03:53:28.251Z,1.50
2023-01-21T03:55:59.177Z,1.98
2023-01-21T03:58:29.483Z,1.67
2023-01-21T04:00:58.824Z,1.80
2023-01-21T04:03:28.473Z,1.23
2023-01-21T04:05:57.775Z,1.45
2023-01-21T04:08:28.878Z,1.23
2023-01-21T04:10:58.277Z,1.10
2023-01-21T04:13:27.919Z,1.30
2023-01-21T04:15:57.575Z,1.27
2023-01-21T04:18:27.414Z,1.35
2023-01-21T04:20:56.729Z,1.40
2023-01-21T04:23:28.613Z,1.38
2023-01-21T04:25:58.183Z,1.25
2023-01-21T04:28:28.079Z,1.55
2023-01-21T04:30:57.479Z,1.20
2023-01-21T04:33:27.199Z,1.60
2023-01-21T04:36:00.199Z,1.33
2023-01-21T04:38:31.282Z,1.13
2023-01-21T04:41:00.641Z,1.67
2023-01-21T04:43:30.461Z,1.60
2023-01-21T04:46:00.047Z,1.60
2023-01-21T04:48:29.712Z,1.65
2023-01-21T04:50:59.644Z,1.23
2023-01-21T04:53:31.101Z,1.42
2023-01-21T04:56:00.382Z,3.42
2023-01-21T04:58:30.154Z,1.27
2023-01-21T05:01:00.101Z,1.35
2023-01-21T05:03:30.266Z,1.13
2023-01-21T05:05:59.708Z,1.45
2023-01-21T05:08:30.885Z,1.10
2023-01-21T05:11:00.234Z,1.88
2023-01-21T05:13:29.867Z,1.13
2023-01-21T05:16:05.416Z,1.05
2023-01-21T05:18:35.131Z,1.00
2023-01-21T05:21:04.788Z,1.10
2023-01-21T05:23:35.997Z,0.80
2023-01-21T05:26:05.969Z,1.33
2023-01-21T05:28:35.596Z,1.00
2023-01-21T05:31:06.002Z,0.90
2023-01-21T05:33:37.017Z,1.00
2023-01-21T05:36:07.201Z,1.05
2023-01-21T05:38:38.352Z,1.00
2023-01-21T05:41:08.150Z,1.27
2023-01-21T05:43:37.888Z,1.15
2023-01-21T05:46:07.694Z,0.70
2023-01-21T05:48:37.526Z,1.20
2023-01-21T05:51:07.446Z,1.58
2023-01-21T05:53:38.691Z,1.13
2023-01-21T05:56:08.463Z,0.95
2023-01-21T05:58:38.948Z,1.08
2023-01-21T06:01:08.178Z,1.92
2023-01-21T06:03:38.369Z,1.20
2023-01-21T06:06:08.812Z,1.23
2023-01-21T06:08:39.960Z,0.95
2023-01-21T06:11:09.334Z,1.40
2023-01-21T06:13:39.431Z,2.13
2023-01-21T06:16:09.633Z,1.40
2023-01-21T06:18:39.402Z,1.02
2023-01-21T06:21:09.128Z,0.80
2023-01-21T06:23:40.244Z,0.93
2023-01-21T06:26:09.837Z,0.85
2023-01-21T06:28:39.803Z,1.02
2023-01-21T06:31:09.754Z,1.20
2023-01-21T06:33:39.578Z,1.50
2023-01-21T06:36:09.679Z,0.82
2023-01-21T06:38:40.905Z,1.20
2023-01-21T06:41:10.161Z,1.30
2023-01-21T06:43:39.986Z,1.30
2023-01-21T06:46:10.979Z,1.10
2023-01-21T06:48:40.751Z,1.52
2023-01-21T06:51:10.376Z,1.20
2023-01-21T06:53:41.681Z,1.30
2023-01-21T06:56:11.025Z,3.22
2023-01-21T06:58:40.869Z,0.80
2023-01-21T07:01:10.579Z,2.10
2023-01-21T07:03:40.236Z,0.90
2023-01-21T07:06:09.832Z,1.38
2023-01-21T07:08:41.025Z,1.15
2023-01-21T07:11:10.513Z,1.08
2023-01-21T07:13:40.275Z,0.75
2023-01-21T07:16:10.248Z,1.67
2023-01-21T07:18:40.197Z,1.98
2023-01-21T07:21:09.558Z,1.50
2023-01-21T07:23:40.958Z,1.75
2023-01-21T07:26:10.399Z,1.08
2023-01-21T07:28:40.088Z,0.90
2023-01-21T07:31:09.859Z,1.13
2023-01-21T07:33:39.669Z,0.87
2023-01-21T07:36:09.524Z,1.45
2023-01-21T07:38:40.688Z,1.07
2023-01-21T07:41:10.158Z,1.27
2023-01-21T07:43:39.819Z,1.10
2023-01-21T07:46:09.298Z,1.60
2023-01-21T07:48:39.362Z,1.05
2023-01-21T07:51:09.013Z,1.17
2023-01-21T07:53:38.643Z,1.70
2023-01-21T07:56:11.251Z,1.45
2023-01-21T07:58:41.150Z,1.23
2023-01-21T08:01:11.908Z,1.75
2023-01-21T08:03:42.110Z,1.23
2023-01-21T08:06:11.756Z,1.30
2023-01-21T08:08:41.362Z,1.35
2023-01-21T08:11:12.534Z,1.25
2023-01-21T08:13:42.337Z,1.08
2023-01-21T08:16:14.041Z,1.52
2023-01-21T08:18:43.898Z,1.35
2023-01-21T08:21:13.155Z,1.15
2023-01-21T08:23:42.884Z,1.17
2023-01-21T08:26:14.015Z,1.10
2023-01-21T08:28:43.684Z,1.85
2023-01-21T08:31:14.499Z,1.15
2023-01-21T08:33:44.898Z,1.63
2023-01-21T08:36:14.386Z,1.30
2023-01-21T08:38:44.411Z,1.50
2023-01-21T08:41:15.087Z,1.45
2023-01-21T08:46:16.113Z,1.90
2023-01-21T08:48:45.895Z,2.00
2023-01-21T08:51:15.519Z,2.45
2023-01-21T08:53:45.448Z,1.83
2023-01-21T08:56:16.131Z,2.80
2023-01-21T09:01:16.831Z,1.33
2023-01-21T09:03:46.801Z,1.25
2023-01-21T09:06:16.185Z,1.77
2023-01-21T09:08:45.823Z,1.73
2023-01-21T09:11:16.976Z,2.42
2023-01-21T09:13:46.728Z,1.60
2023-01-21T09:16:18.099Z,2.13
2023-01-21T09:18:49.249Z,2.05
2023-01-21T09:21:18.715Z,4.32
2023-01-21T09:23:48.348Z,2.13
2023-01-21T09:26:20.424Z,1.50
2023-01-21T09:28:56.421Z,2.38
2023-01-21T09:31:27.218Z,2.13
2023-01-21T09:33:59.547Z,2.60
2023-01-21T09:36:30.466Z,1.60
2023-01-21T09:39:00.608Z,1.73
2023-01-21T09:41:35.707Z,2.08
2023-01-21T09:44:16.587Z,2.20
2023-01-21T09:46:54.697Z,1.73
2023-01-21T09:49:27.942Z,2.35
2023-01-21T09:52:04.505Z,2.28
2023-01-21T09:54:35.869Z,1.55
2023-01-21T10:00:02.705Z,2.92
2023-01-21T10:02:39.749Z,2.17
2023-01-21T10:05:31.873Z,2.08
2023-01-21T10:08:08.885Z,2.20
2023-01-21T10:10:48.438Z,2.75
2023-01-21T10:13:39.563Z,4.05
2023-01-21T10:16:17.661Z,2.53
2023-01-21T10:18:51.910Z,1.80
2023-01-21T10:21:32.105Z,2.40
2023-01-21T10:24:06.160Z,2.10
2023-01-21T10:26:36.996Z,1.90
2023-01-21T10:29:07.961Z,1.95
2023-01-21T10:31:44.596Z,1.83
2023-01-21T10:34:16.737Z,1.83
2023-01-21T10:36:58.509Z,1.90
2023-01-21T10:39:37.315Z,1.60
2023-01-21T10:42:18.727Z,1.88
2023-01-21T10:47:34.751Z,2.13
2023-01-21T10:50:25.466Z,1.80
2023-01-21T10:53:01.327Z,1.88
2023-01-21T10:55:42.939Z,2.72
2023-01-21T10:58:28.729Z,2.08
2023-01-21T11:01:03.084Z,1.85
2023-01-21T11:03:39.237Z,2.05
2023-01-21T11:06:11.093Z,2.90
2023-01-21T11:08:41.496Z,2.33
2023-01-21T11:11:11.138Z,1.63
2023-01-21T11:13:41.737Z,2.38
2023-01-21T11:16:12.931Z,2.20
2023-01-21T11:18:44.955Z,1.70
2023-01-21T11:21:21.403Z,2.22
2023-01-21T11:23:56.076Z,1.80
2023-01-21T11:26:29.183Z,2.22
2023-01-21T11:29:09.878Z,1.55
2023-01-21T11:31:43.053Z,1.70
2023-01-21T11:34:17.450Z,2.17
2023-01-21T11:36:58.469Z,1.70
2023-01-21T11:39:30.237Z,2.00
2023-01-21T11:42:04.395Z,2.10
2023-01-21T11:44:35.174Z,1.92
2023-01-21T11:47:27.533Z,2.00
2023-01-21T11:50:03.705Z,2.50
2023-01-21T11:52:33.109Z,1.92
2023-01-21T11:55:05.125Z,2.78
2023-01-21T11:57:35.774Z,2.95
2023-01-21T12:02:45.928Z,2.63
2023-01-21T12:05:27.817Z,2.33
2023-01-21T12:07:57.728Z,2.25
2023-01-21T12:10:32.099Z,1.83
2023-01-21T12:13:21.397Z,2.35
2023-01-21T12:16:14.745Z,1.90
2023-01-21T12:19:16.848Z,1.92
2023-01-21T12:22:04.321Z,1.67
2023-01-21T12:24:48.699Z,1.98
2023-01-21T12:27:25.642Z,2.38
2023-01-21T12:30:08.811Z,2.83
2023-01-21T12:32:43.807Z,2.08
2023-01-21T12:35:19.466Z,1.77
2023-01-21T12:37:53.917Z,2.15
2023-01-21T12:40:29.844Z,2.90
2023-01-21T12:43:05.106Z,1.98
2023-01-21T12:45:40.199Z,1.88
2023-01-21T12:48:16.843Z,2.10
2023-01-21T12:50:52.876Z,1.52
2023-01-21T12:53:31.672Z,2.30
2023-01-21T12:56:14.682Z,1.92
2023-01-21T12:58:48.264Z,3.72
2023-01-21T13:01:32.282Z,1.88
2023-01-21T13:04:08.817Z,2.33
2023-01-21T13:06:53.685Z,3.15
2023-01-21T13:09:36.179Z,2.30
2023-01-21T13:12:11.777Z,1.92
2023-01-21T13:14:46.720Z,2.28
2023-01-21T13:17:20.864Z,1.48
2023-01-21T13:19:50.671Z,2.35
2023-01-21T13:22:30.802Z,1.60
2023-01-21T13:25:14.031Z,1.48
2023-01-21T13:27:49.154Z,1.50
2023-01-21T13:30:30.123Z,1.80
2023-01-21T13:33:11.139Z,2.20
2023-01-21T13:35:50.040Z,2.08
2023-01-21T13:38:28.807Z,2.20
2023-01-21T13:41:07.702Z,2.38
2023-01-21T13:43:59.667Z,2.63
2023-01-21T13:46:49.020Z,2.38
2023-01-21T13:50:00.838Z,2.25
2023-01-21T13:52:43.730Z,2.90
2023-01-21T13:55:31.416Z,2.22
2023-01-21T13:58:08.775Z,1.88
2023-01-21T14:00:44.052Z,2.65
2023-01-21T14:03:24.428Z,3.35
2023-01-21T14:05:57.711Z,2.03
2023-01-21T14:08:32.086Z,2.65
2023-01-21T14:11:08.421Z,3.15
2023-01-21T14:14:25.330Z,2.17
2023-01-21T14:17:20.258Z,2.63
2023-01-21T14:20:31.729Z,3.63
2023-01-21T14:23:13.953Z,4.00
2023-01-21T14:26:04.718Z,3.00
2023-01-21T14:28:42.611Z,4.47
2023-01-21T14:31:16.479Z,2.28
2023-01-21T14:33:50.894Z,2.63
2023-01-21T14:36:27.812Z,3.22
2023-01-21T14:39:08.645Z,4.15
2023-01-21T14:42:03.168Z,3.95
2023-01-21T14:44:45.830Z,4.65
2023-01-21T14:47:23.375Z,3.22
2023-01-21T14:49:55.222Z,2.75
2023-01-21T14:52:31.929Z,4.18
2023-01-21T14:55:01.985Z,2.88
2023-01-21T14:57:34.179Z,3.22
2023-01-21T15:00:21.987Z,4.22
2023-01-21T15:02:57.843Z,3.35
2023-01-21T15:05:30.830Z,3.65
2023-01-21T15:08:07.524Z,4.63
2023-01-21T15:10:39.343Z,4.07
2023-01-21T15:13:28.954Z,3.60
2023-01-21T15:16:33.032Z,4.05
2023-01-21T15:19:25.644Z,4.28
2023-01-21T15:22:30.790Z,3.95
2023-01-21T15:25:34.464Z,3.83
2023-01-21T15:28:43.932Z,4.78
2023-01-21T15:31:43.238Z,4.80
2023-01-21T15:34:18.018Z,4.90
2023-01-21T15:36:50.682Z,4.53
2023-01-21T15:39:25.388Z,3.70
2023-01-21T15:42:10.931Z,2.95
2023-01-21T15:44:51.444Z,3.85
2023-01-21T15:47:51.737Z,8.27
2023-01-21T15:50:24.807Z,3.63
2023-01-21T15:53:11.287Z,3.15
2023-01-21T15:56:12.095Z,4.82
2023-01-21T15:58:52.863Z,3.88
2023-01-21T16:01:30.745Z,2.90
2023-01-21T16:04:20.302Z,4.55
2023-01-21T16:07:09.166Z,4.70
2023-01-21T16:09:49.683Z,4.45
2023-01-21T16:12:26.634Z,3.72
2023-01-21T16:15:03.334Z,3.22
2023-01-21T16:17:47.861Z,3.30
2023-01-21T16:20:19.006Z,4.00
2023-01-21T16:22:54.079Z,3.88
2023-01-21T16:25:26.104Z,3.97
2023-01-21T16:27:56.652Z,4.70
2023-01-21T16:30:31.299Z,3.90
2023-01-21T16:33:11.268Z,4.63
2023-01-21T16:35:49.172Z,4.75
2023-01-21T16:38:20.733Z,4.47
2023-01-21T16:40:52.278Z,4.15
2023-01-21T16:43:26.589Z,4.05
2023-01-21T16:46:03.172Z,4.38
2023-01-21T16:48:34.467Z,4.97
2023-01-21T16:51:07.916Z,4.68
2023-01-21T16:53:37.447Z,4.90
2023-01-21T16:56:07.987Z,5.53
2023-01-21T16:58:37.918Z,4.20
2023-01-21T17:01:12.536Z,7.53
2023-01-21T17:03:41.888Z,4.45
2023-01-21T17:06:17.806Z,6.75
2023-01-21T17:08:52.230Z,4.82
2023-01-21T17:11:24.367Z,5.10
2023-01-21T17:13:54.526Z,5.00
2023-01-21T17:16:30.250Z,6.50
2023-01-21T17:19:02.221Z,6.78
2023-01-21T17:21:38.778Z,7.93
2023-01-21T17:24:17.288Z,7.40
2023-01-21T17:26:50.367Z,6.32
2023-01-21T17:29:21.947Z,5.90
2023-01-21T17:31:57.834Z,6.28
2023-01-21T17:34:29.047Z,6.25
2023-01-21T17:37:01.220Z,6.13
2023-01-21T17:40:01.144Z,6.13
2023-01-21T17:42:41.807Z,5.80
2023-01-21T17:45:21.038Z,5.47
2023-01-21T17:48:08.255Z,4.85
2023-01-21T17:50:39.560Z,5.78
2023-01-21T17:53:22.934Z,8.20
2023-01-21T17:56:02.228Z,5.50
2023-01-21T17:58:47.231Z,7.00
2023-01-21T18:01:17.339Z,7.22
2023-01-21T18:03:47.198Z,6.18
2023-01-21T18:06:22.236Z,5.68
2023-01-21T18:08:54.373Z,5.60
2023-01-21T18:11:24.609Z,4.53
2023-01-21T18:13:55.169Z,4.22
2023-01-21T18:16:24.573Z,3.90
2023-01-21T18:18:55.109Z,4.20
2023-01-21T18:21:24.379Z,3.73
2023-01-21T18:23:55.538Z,4.45
2023-01-21T18:26:31.950Z,4.40
2023-01-21T18:29:01.773Z,4.72
2023-01-21T18:31:31.258Z,4.50
2023-01-21T18:34:03.930Z,4.15
2023-01-21T18:36:34.246Z,3.83
2023-01-21T18:39:05.683Z,4.13
2023-01-21T18:44:04.554Z,4.28
2023-01-21T18:46:34.205Z,4.78
2023-01-21T18:49:06.088Z,3.50
2023-01-21T18:51:35.386Z,2.83
2023-01-21T18:54:07.644Z,6.85
2023-01-21T18:56:38.336Z,6.03
2023-01-21T19:01:42.331Z,3.65
2023-01-21T19:04:18.791Z,3.63
2023-01-21T19:06:50.609Z,3.90
2023-01-21T19:09:25.172Z,3.25
2023-01-21T19:11:54.728Z,3.63
2023-01-21T19:14:24.462Z,3.75
2023-01-21T19:16:54.015Z,2.97
2023-01-21T19:19:26.354Z,3.63
2023-01-21T19:21:56.381Z,3.50
2023-01-21T19:24:28.223Z,3.00
2023-01-21T19:26:57.700Z,3.45
2023-01-21T19:29:28.694Z,3.63
2023-01-21T19:31:58.661Z,2.90
2023-01-21T19:34:28.462Z,3.25
2023-01-21T19:36:58.266Z,3.17
2023-01-21T19:39:33.062Z,2.83
2023-01-21T19:42:08.706Z,4.45
2023-01-21T19:44:39.563Z,2.97
2023-01-21T19:47:18.419Z,2.90
2023-01-21T19:49:48.306Z,3.42
2023-01-21T19:52:18.476Z,2.88
2023-01-21T19:54:52.214Z,3.92
2023-01-21T19:57:22.757Z,2.70
2023-01-21T19:59:54.559Z,2.80
2023-01-21T20:04:55.315Z,3.22
2023-01-21T20:07:24.729Z,2.92
2023-01-21T20:09:55.813Z,3.10
2023-01-21T20:12:26.545Z,3.60
2023-01-21T20:17:25.178Z,3.88
2023-01-21T20:19:55.299Z,3.38
2023-01-21T20:22:26.003Z,2.95
2023-01-21T20:24:57.617Z,3.60
2023-01-21T20:27:29.699Z,2.90
2023-01-21T20:30:14.727Z,3.38
2023-01-21T20:32:45.091Z,3.70
2023-01-21T20:35:17.085Z,3.03
2023-01-21T20:37:49.264Z,3.53
2023-01-21T20:40:23.226Z,3.40
2023-01-21T20:42:53.491Z,4.00
2023-01-21T20:45:26.516Z,3.38
2023-01-21T20:48:02.728Z,3.35
2023-01-21T20:50:35.680Z,3.40
2023-01-21T20:53:05.783Z,3.30
2023-01-21T20:55:37.877Z,6.32
2023-01-21T20:58:07.628Z,6.63
2023-01-21T21:00:37.551Z,4.32
2023-01-21T21:03:07.059Z,3.47
2023-01-21T21:05:40.032Z,3.38
2023-01-21T21:08:11.363Z,3.75
2023-01-21T21:10:42.594Z,2.88
2023-01-21T21:13:12.887Z,3.50
2023-01-21T21:15:46.522Z,3.58
2023-01-21T21:18:16.466Z,3.05
2023-01-21T21:20:46.364Z,3.88
2023-01-21T21:23:16.681Z,3.80
2023-01-21T21:25:49.936Z,3.78
2023-01-21T21:28:21.523Z,3.47
2023-01-21T21:30:51.488Z,3.78
2023-01-21T21:33:23.506Z,3.50
2023-01-21T21:35:53.722Z,3.88
2023-01-21T21:38:23.264Z,3.53
2023-01-21T21:40:54.916Z,3.40
2023-01-21T21:43:39.193Z,4.75
2023-01-21T21:46:27.708Z,3.25
2023-01-21T21:48:57.487Z,3.10
2023-01-21T21:51:28.712Z,3.88
2023-01-21T21:53:58.131Z,3.97
2023-01-21T21:56:34.571Z,3.35
2023-01-21T21:59:05.637Z,3.85
2023-01-21T22:01:36.468Z,3.78
2023-01-21T22:04:06.578Z,3.60
2023-01-21T22:06:36.231Z,5.35
2023-01-21T22:09:05.814Z,3.47
2023-01-21T22:11:37.287Z,3.38
2023-01-21T22:16:36.770Z,3.45
2023-01-21T22:19:06.162Z,3.85
2023-01-21T22:21:36.468Z,3.40
2023-01-21T22:24:07.124Z,3.65
2023-01-21T22:26:39.109Z,3.60
2023-01-21T22:31:38.474Z,2.78
2023-01-21T22:34:07.838Z,3.50
2023-01-21T22:36:37.815Z,3.80
2023-01-21T22:39:07.471Z,3.60
2023-01-21T22:41:38.589Z,2.80
2023-01-21T22:44:07.995Z,3.70
2023-01-21T22:46:37.766Z,3.05
2023-01-21T22:49:07.160Z,2.80
2023-01-21T22:51:36.842Z,3.47
2023-01-21T22:54:07.703Z,3.65
2023-01-21T22:56:51.540Z,3.47
2023-01-21T22:59:22.585Z,3.15
2023-01-21T23:01:52.570Z,11.23
2023-01-21T23:04:21.867Z,3.42
2023-01-21T23:06:55.155Z,3.35
2023-01-21T23:09:24.720Z,3.90
2023-01-21T23:11:55.798Z,3.30
2023-01-21T23:14:25.096Z,3.30
2023-01-21T23:16:55.024Z,4.03
2023-01-21T23:19:24.402Z,3.85
2023-01-21T23:21:54.086Z,3.42
2023-01-21T23:24:24.000Z,2.83
2023-01-21T23:26:55.270Z,4.38
2023-01-21T23:29:24.926Z,3.03
2023-01-21T23:31:54.695Z,3.67
2023-01-21T23:34:24.200Z,3.45
2023-01-21T23:36:53.998Z,3.03
2023-01-21T23:39:23.256Z,4.40
2023-01-21T23:41:52.939Z,3.38
2023-01-21T23:44:25.676Z,3.40
2023-01-21T23:46:55.287Z,3.88
2023-01-21T23:49:24.659Z,3.40
2023-01-21T23:51:54.376Z,4.38
2023-01-21T23:54:23.798Z,4.20
2023-01-21T23:56:53.681Z,3.35
2023-01-21T23:59:24.606Z,3.72
